EEKA 
Kärdla Airport
Kärdla, Estonia 
ICAOStatus
EEKAOperational
LatitudeLongitude
58° 59' 26" N22° 49' 50" E
58.99075622.830733
Local Time (DST+3)UTC (GMT+2)
04-25-2014 12:15 am04-24-2014 21:15
Sunrise-SunsetLocalUTC
Begin Civil Twilight04:55 am01:55
Sunrise05:43 am02:43
Sunset09:09 pm18:09
End Civil Twilight09:57 pm18:57

Current Weather

METARObservedFlight Conditions

EEKA 241550Z 02008KT CAVOK 07/M02 Q1031

Thu, Apr 24, 2014 @ 15:50 UTC(Z)

(5 Hours, 25 Minutes ago)

VFR

(Visual Flight Rules)

WindVisibilityCloudsConditions
020° at 8 knots (15 kph)
10 km or more
  • Clear skies
  • No significant weather
TemperaturesReadingsPrecipitation
Current Temp7°C (45°F)
Dewpoint-2°C (28°F)
Humidity53%
Altimeter30.44"Hg
Sea Level Pressure1031mb
Field Elevation13.12'
None Recorded

Additional weather within a 92.6km radius of EEKA

Location METAR
EEKE

86.5km S (192°)

25 minutes ago
VFR VFR    MVFR MVFR    IFR IFR    LIFR LIFR    Unknown Unknown

Previous 24 hour Weather Graphs

  Loading...

CheckWX.com is intended as a tool to help pilots better visualize weather data.   It is not intended as a substitute for an official weather briefing obtained from a Flight Service Station.
CheckWX.com does not meet the FAA requirements for an official pre-flight weather briefing.   Therefore, it's important that pilots still call and obtain an official FSS pre-flight weather briefing.